Edgar, Wisconsin
Current Conditions -  °F | °C
As of 3:54 PM on Sunday 23 Nov 2014 (Local Time) from KAUW Reporting Station
Light Rain Light Rain  
Wind Chill: 44°   Ceiling: 200
Heat Index: 46°   Visibility: 0.25mi
Dew Point: 45°   Wind: 5mph
Humidity: 96%   Direction: 110°ESE
Pressure: 29.39"   Gusts: NA
Location:  44.93°N, 89.96°W
Report Text: KAUW 232154Z AUTO 11004KT 1/4SM -RA FG OVC002 08/07 A2939 RMK AO2 SLP962 P0003 T00780072
Loading
Personal Weather Stations






























Interactive Weather Map New forecast layout! Learn more

10-Day Weather Forecast

Advertisements
Track Severe Weather on mobile